Lincolns New Salem, Illinois
Current Conditions -  °F | °C
As of 6:52 AM on Thursday 30 Oct 2014 (Local Time) from KSPI Reporting Station
Clear Clear  
Wind Chill: 36°   Ceiling: Unl
Heat Index: 36°   Visibility: 10mi
Dew Point: 33°   Wind: 0mph
Humidity: 89%   Direction: NA
Pressure: 30.15"   Gusts: NA
Location:  39.995°N, 89.8499°W
Report Text: KSPI 301152Z 00000KT 10SM CLR 02/01 A3015 RMK AO2 SLP213 I6000 T00220006 10033 20006 58002
Loading
Personal Weather Stations






























Interactive Weather Map
Tropical Storm Tracking
New forecast layout! Learn more

10-Day Weather Forecast

Advertisements
Track Severe Weather on mobile